createdAt,value
2023-05-05T00:00:11.150Z,968.00
2023-05-05T00:01:11.207Z,983.00
2023-05-05T00:02:11.329Z,1000.00
2023-05-05T00:03:11.372Z,991.00
2023-05-05T00:04:11.428Z,957.00
2023-05-05T00:05:11.476Z,954.00
2023-05-05T00:06:11.506Z,936.00
2023-05-05T00:07:11.562Z,947.00
2023-05-05T00:08:11.619Z,939.00
2023-05-05T00:09:11.667Z,957.00
2023-05-05T00:10:11.726Z,952.00
2023-05-05T00:11:11.797Z,962.00
2023-05-05T00:12:11.848Z,970.00
2023-05-05T00:13:11.934Z,970.00
2023-05-05T00:14:11.926Z,963.00
2023-05-05T00:15:11.970Z,972.00
2023-05-05T00:16:12.031Z,984.00
2023-05-05T00:17:12.170Z,988.00
2023-05-05T00:18:12.108Z,1006.00
2023-05-05T00:19:12.149Z,1012.00
2023-05-05T00:20:12.285Z,1044.00
2023-05-05T00:21:12.246Z,1143.00
2023-05-05T00:22:12.250Z,1169.00
2023-05-05T00:23:12.259Z,1137.00
2023-05-05T00:24:12.266Z,1131.00
2023-05-05T00:25:12.263Z,1099.00
2023-05-05T00:26:12.260Z,1094.00
2023-05-05T00:27:12.278Z,1088.00
2023-05-05T00:28:12.284Z,1087.00
2023-05-05T00:29:12.285Z,1090.00
2023-05-05T00:30:12.306Z,1109.00
2023-05-05T00:31:12.373Z,1135.00
2023-05-05T00:32:12.342Z,1112.00
2023-05-05T00:33:12.320Z,1096.00
2023-05-05T00:34:12.341Z,1069.00
2023-05-05T00:35:12.347Z,1077.00
2023-05-05T00:36:12.327Z,1116.00
2023-05-05T00:37:12.319Z,1133.00
2023-05-05T00:38:12.325Z,1117.00
2023-05-05T00:39:12.315Z,1115.00
2023-05-05T00:40:12.319Z,1095.00
2023-05-05T00:41:12.346Z,1082.00
2023-05-05T00:42:12.433Z,1087.00
2023-05-05T00:43:12.331Z,1053.00
2023-05-05T00:44:12.411Z,1026.00
2023-05-05T00:45:12.368Z,1002.00
2023-05-05T00:46:12.380Z,1004.00
2023-05-05T00:47:12.387Z,992.00
2023-05-05T00:48:12.372Z,1016.00
2023-05-05T00:49:12.432Z,1047.00
2023-05-05T00:50:12.383Z,1098.00
2023-05-05T00:51:12.399Z,1106.00
2023-05-05T00:52:12.450Z,1094.00
2023-05-05T00:53:12.420Z,1086.00
2023-05-05T00:54:12.426Z,1074.00
2023-05-05T00:55:12.422Z,1073.00
2023-05-05T00:56:12.400Z,1072.00
2023-05-05T00:57:12.448Z,1112.00
2023-05-05T00:58:12.444Z,1198.00
2023-05-05T00:59:12.462Z,1225.00
2023-05-05T01:00:12.472Z,1207.00
2023-05-05T01:01:12.528Z,1169.00
2023-05-05T01:02:12.479Z,1197.00
2023-05-05T01:03:12.517Z,1198.00
2023-05-05T01:04:12.477Z,1193.00
2023-05-05T01:05:12.545Z,1160.00
2023-05-05T01:06:12.467Z,1169.00
2023-05-05T01:07:12.474Z,1170.00
2023-05-05T01:08:12.475Z,1173.00
2023-05-05T01:09:12.448Z,1172.00
2023-05-05T01:10:19.577Z,1162.00
2023-05-05T01:11:13.440Z,1163.00
2023-05-05T01:12:12.455Z,1168.00
2023-05-05T01:13:12.529Z,1182.00
2023-05-05T01:14:12.418Z,1175.00
2023-05-05T01:15:12.409Z,1179.00
2023-05-05T01:16:12.453Z,1146.00
2023-05-05T01:17:12.400Z,1149.00
2023-05-05T01:18:12.381Z,1115.00
2023-05-05T01:19:12.396Z,1112.00
2023-05-05T01:20:12.369Z,1140.00
2023-05-05T01:21:12.368Z,1157.00
2023-05-05T01:22:12.369Z,1231.00
2023-05-05T01:23:12.346Z,1253.00
2023-05-05T01:24:12.337Z,1262.00
2023-05-05T01:25:12.355Z,1237.00
2023-05-05T01:26:12.420Z,1176.00
2023-05-05T01:27:12.325Z,1153.00
2023-05-05T01:28:12.310Z,1126.00
2023-05-05T01:29:12.311Z,1125.00
2023-05-05T01:30:12.285Z,1128.00
2023-05-05T01:31:12.373Z,1134.00
2023-05-05T01:32:12.310Z,1154.00
2023-05-05T01:33:12.273Z,1180.00
2023-05-05T01:34:12.302Z,1175.00
2023-05-05T01:35:12.256Z,1192.00
2023-05-05T01:36:12.258Z,1202.00
2023-05-05T01:37:12.257Z,1206.00
2023-05-05T01:38:12.246Z,1214.00
2023-05-05T01:39:12.236Z,1212.00
2023-05-05T01:40:12.220Z,1218.00
2023-05-05T01:41:12.220Z,1208.00
2023-05-05T01:42:12.215Z,1210.00
2023-05-05T01:43:12.240Z,1214.00
2023-05-05T01:44:12.212Z,1234.00
2023-05-05T01:45:12.196Z,1230.00
2023-05-05T01:46:12.239Z,1261.00
2023-05-05T01:47:12.187Z,1283.00
2023-05-05T01:48:12.285Z,1312.00
2023-05-05T01:49:12.172Z,1337.00
2023-05-05T01:50:12.182Z,1345.00
2023-05-05T01:51:12.164Z,1340.00
2023-05-05T01:52:12.160Z,1314.00
2023-05-05T01:53:12.162Z,1298.00
2023-05-05T01:54:12.169Z,1292.00
2023-05-05T01:55:12.141Z,1308.00
2023-05-05T01:56:12.125Z,1318.00
2023-05-05T01:57:12.104Z,1311.00
2023-05-05T01:58:12.118Z,1329.00
2023-05-05T01:59:12.117Z,1350.00
2023-05-05T02:00:12.104Z,1366.00
2023-05-05T02:01:12.122Z,1368.00
2023-05-05T02:02:12.139Z,1365.00
2023-05-05T02:03:12.185Z,1353.00
2023-05-05T02:04:12.155Z,1347.00
2023-05-05T02:05:12.105Z,1325.00
2023-05-05T02:06:12.085Z,1285.00
2023-05-05T02:07:12.092Z,1274.00
2023-05-05T02:08:12.098Z,1281.00
2023-05-05T02:09:12.093Z,1307.00
2023-05-05T02:10:12.182Z,1330.00
2023-05-05T02:11:12.098Z,1351.00
2023-05-05T02:12:12.065Z,1357.00
2023-05-05T02:13:12.137Z,1361.00
2023-05-05T02:14:12.111Z,1368.00
2023-05-05T02:15:12.076Z,1360.00
2023-05-05T02:16:12.120Z,1367.00
2023-05-05T02:17:12.073Z,1373.00
2023-05-05T02:18:12.050Z,1370.00
2023-05-05T02:19:12.088Z,1378.00
2023-05-05T02:20:12.074Z,1364.00
2023-05-05T02:21:12.069Z,1347.00
2023-05-05T02:22:12.080Z,1332.00
2023-05-05T02:23:12.079Z,1325.00
2023-05-05T02:24:12.050Z,1336.00
2023-05-05T02:25:12.060Z,1318.00
2023-05-05T02:26:12.056Z,1366.00
2023-05-05T02:27:12.085Z,1359.00
2023-05-05T02:28:12.063Z,1343.00
2023-05-05T02:29:12.088Z,1321.00
2023-05-05T02:30:12.081Z,1329.00
2023-05-05T02:31:12.105Z,1350.00
2023-05-05T02:32:12.035Z,1384.00
2023-05-05T02:33:12.162Z,1423.00
2023-05-05T02:34:12.078Z,1440.00
2023-05-05T02:35:12.082Z,1415.00
2023-05-05T02:36:12.061Z,1350.00
2023-05-05T02:37:12.060Z,1347.00
2023-05-05T02:38:12.034Z,1336.00
2023-05-05T02:39:12.046Z,1308.00
2023-05-05T02:40:12.039Z,1304.00
2023-05-05T02:41:12.035Z,1268.00
2023-05-05T02:42:12.038Z,1291.00
2023-05-05T02:43:12.061Z,1331.00
2023-05-05T02:44:12.069Z,1427.00
2023-05-05T02:45:12.008Z,1426.00
2023-05-05T02:46:12.025Z,1394.00
2023-05-05T02:47:12.012Z,1377.00
2023-05-05T02:48:11.992Z,1367.00
2023-05-05T02:49:12.003Z,1368.00
2023-05-05T02:50:11.980Z,1376.00
2023-05-05T02:51:12.001Z,1385.00
2023-05-05T02:52:11.984Z,1398.00
2023-05-05T02:53:11.997Z,1397.00
2023-05-05T02:54:11.999Z,1394.00
2023-05-05T02:55:12.074Z,1400.00
2023-05-05T02:56:11.974Z,1408.00
2023-05-05T02:57:11.960Z,1400.00
2023-05-05T02:58:11.981Z,1413.00
2023-05-05T02:59:13.321Z,1409.00
2023-05-05T03:00:12.015Z,1396.00
2023-05-05T03:01:12.070Z,1397.00
2023-05-05T03:02:12.018Z,1377.00
2023-05-05T03:03:12.085Z,1376.00
2023-05-05T03:04:12.030Z,1380.00
2023-05-05T03:05:12.005Z,1362.00
2023-05-05T03:06:12.004Z,1370.00
2023-05-05T03:07:12.003Z,1342.00
2023-05-05T03:08:12.011Z,1327.00
2023-05-05T03:09:11.979Z,1310.00
2023-05-05T03:10:12.004Z,1345.00
2023-05-05T03:11:11.998Z,1386.00
2023-05-05T03:12:11.988Z,1413.00
2023-05-05T03:13:12.038Z,1382.00
2023-05-05T03:14:12.037Z,1389.00
2023-05-05T03:15:11.982Z,1372.00
2023-05-05T03:16:12.029Z,1323.00
2023-05-05T03:17:12.088Z,1251.00
2023-05-05T03:18:11.986Z,1216.00
2023-05-05T03:19:11.993Z,1199.00
2023-05-05T03:20:11.981Z,1237.00
2023-05-05T03:21:12.000Z,1248.00
2023-05-05T03:22:11.986Z,1258.00
2023-05-05T03:23:11.973Z,1301.00
2023-05-05T03:24:11.963Z,1293.00
2023-05-05T03:25:11.960Z,1318.00
2023-05-05T03:26:11.969Z,1337.00
2023-05-05T03:27:11.949Z,1383.00
2023-05-05T03:28:11.955Z,1390.00
2023-05-05T03:29:11.953Z,1386.00
2023-05-05T03:30:11.965Z,1371.00
2023-05-05T03:31:11.967Z,1369.00
2023-05-05T03:32:12.019Z,1393.00
2023-05-05T03:33:11.976Z,1396.00
2023-05-05T03:34:12.042Z,1389.00
2023-05-05T03:35:11.962Z,1402.00
2023-05-05T03:36:11.968Z,1399.00
2023-05-05T03:37:11.939Z,1423.00
2023-05-05T03:38:11.975Z,1450.00
2023-05-05T03:39:12.076Z,1450.00
2023-05-05T03:40:11.986Z,1468.00
2023-05-05T03:41:12.021Z,1492.00
2023-05-05T03:42:12.014Z,1520.00
2023-05-05T03:43:12.039Z,1530.00
2023-05-05T03:44:12.039Z,1529.00
2023-05-05T03:45:12.021Z,1529.00
2023-05-05T03:46:12.114Z,1531.00
2023-05-05T03:47:12.028Z,1511.00
2023-05-05T03:48:12.039Z,1479.00
2023-05-05T03:49:12.013Z,1445.00
2023-05-05T03:50:12.018Z,1430.00
2023-05-05T03:51:12.017Z,1415.00
2023-05-05T03:52:13.833Z,1418.00
2023-05-05T03:53:12.007Z,1438.00
2023-05-05T03:54:12.013Z,1460.00
2023-05-05T03:55:11.982Z,1460.00
2023-05-05T03:56:11.972Z,1485.00
2023-05-05T03:57:11.968Z,1464.00
2023-05-05T03:58:11.957Z,1466.00
2023-05-05T03:59:11.952Z,1472.00
2023-05-05T04:00:11.982Z,1474.00
2023-05-05T04:01:12.037Z,1488.00
2023-05-05T04:02:11.956Z,1480.00
2023-05-05T04:03:12.003Z,1473.00
2023-05-05T04:04:11.970Z,1457.00
2023-05-05T04:05:11.923Z,1457.00
2023-05-05T04:06:11.914Z,1449.00
2023-05-05T04:07:11.910Z,1442.00
2023-05-05T04:08:11.906Z,1415.00
2023-05-05T04:09:11.896Z,1392.00
2023-05-05T04:10:11.919Z,1365.00
2023-05-05T04:11:11.859Z,1361.00
2023-05-05T04:12:11.858Z,1340.00
2023-05-05T04:13:11.977Z,1347.00
2023-05-05T04:14:11.922Z,1337.00
2023-05-05T04:15:11.845Z,1347.00
2023-05-05T04:16:11.845Z,1341.00
2023-05-05T04:17:11.836Z,1378.00
2023-05-05T04:18:11.830Z,1429.00
2023-05-05T04:19:11.803Z,1471.00
2023-05-05T04:20:11.795Z,1485.00
2023-05-05T04:21:11.806Z,1471.00
2023-05-05T04:22:11.803Z,1473.00
2023-05-05T04:23:11.795Z,1458.00
2023-05-05T04:24:11.908Z,1418.00
2023-05-05T04:25:11.776Z,1355.00
2023-05-05T04:26:11.779Z,1334.00
2023-05-05T04:27:11.752Z,1277.00
2023-05-05T04:28:11.762Z,1268.00
2023-05-05T04:29:11.734Z,1287.00
2023-05-05T04:30:11.766Z,1306.00
2023-05-05T04:31:11.731Z,1305.00
2023-05-05T04:32:11.736Z,1303.00
2023-05-05T04:33:11.712Z,1282.00
2023-05-05T04:34:11.716Z,1252.00
2023-05-05T04:35:11.695Z,1239.00
2023-05-05T04:36:11.696Z,1235.00
2023-05-05T04:37:11.692Z,1212.00
2023-05-05T04:38:11.689Z,1225.00
2023-05-05T04:39:11.679Z,1227.00
2023-05-05T04:40:11.668Z,1236.00
2023-05-05T04:41:11.666Z,1268.00
2023-05-05T04:42:11.655Z,1251.00
2023-05-05T04:43:11.649Z,1269.00
2023-05-05T04:44:11.626Z,1275.00
2023-05-05T04:45:11.644Z,1274.00
2023-05-05T04:46:11.764Z,1275.00
2023-05-05T04:47:14.476Z,1254.00
2023-05-05T04:48:11.612Z,1255.00
2023-05-05T04:49:11.601Z,1247.00
2023-05-05T04:50:11.592Z,1242.00
2023-05-05T04:51:11.582Z,1226.00
2023-05-05T04:52:11.566Z,1228.00
2023-05-05T04:53:11.590Z,1222.00
2023-05-05T04:54:11.578Z,1221.00
2023-05-05T04:55:11.625Z,1194.00
2023-05-05T04:56:11.557Z,1196.00
2023-05-05T04:57:11.557Z,1219.00
2023-05-05T04:58:11.569Z,1208.00
2023-05-05T04:59:11.545Z,1221.00
2023-05-05T05:00:11.759Z,1236.00
2023-05-05T05:01:11.529Z,1266.00
2023-05-05T05:02:11.553Z,1286.00
2023-05-05T05:03:11.665Z,1299.00
2023-05-05T05:04:11.494Z,1328.00
2023-05-05T05:05:11.518Z,1335.00
2023-05-05T05:06:11.495Z,1352.00
2023-05-05T05:07:11.476Z,1359.00
2023-05-05T05:08:11.546Z,1356.00
2023-05-05T05:09:11.451Z,1365.00
2023-05-05T05:10:11.466Z,1403.00
2023-05-05T05:11:11.437Z,1447.00
2023-05-05T05:12:11.430Z,1476.00
2023-05-05T05:13:12.654Z,1489.00
2023-05-05T05:14:11.416Z,1502.00
2023-05-05T05:15:11.419Z,1509.00
2023-05-05T05:16:11.439Z,1470.00
2023-05-05T05:17:11.413Z,1460.00
2023-05-05T05:18:11.397Z,1475.00
2023-05-05T05:19:11.404Z,1468.00
2023-05-05T05:20:11.625Z,1463.00
2023-05-05T05:21:11.362Z,1477.00
2023-05-05T05:22:11.383Z,1461.00
2023-05-05T05:23:11.368Z,1489.00
2023-05-05T05:24:11.367Z,1476.00
2023-05-05T05:25:11.337Z,1474.00
2023-05-05T05:26:11.634Z,1495.00
2023-05-05T05:27:11.324Z,1486.00
2023-05-05T05:28:11.365Z,1499.00
2023-05-05T05:29:11.410Z,1536.00
2023-05-05T05:30:11.554Z,1568.00
2023-05-05T05:31:11.630Z,1597.00
2023-05-05T05:32:11.627Z,1600.00
2023-05-05T05:33:11.656Z,1728.00
2023-05-05T05:34:12.840Z,1736.00
2023-05-05T05:35:11.683Z,1725.00
2023-05-05T05:36:11.718Z,1732.00
2023-05-05T05:37:11.785Z,1759.00
2023-05-05T05:38:11.835Z,1766.00
2023-05-05T05:39:11.841Z,1779.00
2023-05-05T05:40:12.613Z,1836.00
2023-05-05T05:41:11.905Z,1903.00
2023-05-05T05:42:11.938Z,1934.00
2023-05-05T05:43:12.169Z,1975.00
2023-05-05T05:44:12.003Z,2020.00
2023-05-05T05:45:12.014Z,2039.00
2023-05-05T05:46:12.090Z,2066.00
2023-05-05T05:47:12.076Z,2104.00
2023-05-05T05:48:12.137Z,2137.00
2023-05-05T05:49:12.151Z,2175.00
2023-05-05T05:50:12.178Z,2208.00
2023-05-05T05:51:12.201Z,2234.00
2023-05-05T05:52:12.309Z,2236.00
2023-05-05T05:53:12.252Z,2256.00
2023-05-05T05:54:12.248Z,2272.00
2023-05-05T05:55:12.246Z,2285.00
2023-05-05T05:56:12.256Z,2298.00
2023-05-05T05:57:12.273Z,2310.00
2023-05-05T05:58:12.299Z,2331.00
2023-05-05T05:59:12.283Z,2341.00
2023-05-05T06:00:12.306Z,2349.00
2023-05-05T06:01:12.312Z,2353.00
2023-05-05T06:02:12.371Z,2355.00
2023-05-05T06:03:12.546Z,2383.00
2023-05-05T06:04:12.731Z,2400.00
2023-05-05T06:05:12.354Z,2398.00
2023-05-05T06:06:12.363Z,2422.00
2023-05-05T06:07:12.360Z,2436.00
2023-05-05T06:08:12.383Z,2444.00
2023-05-05T06:09:12.387Z,2459.00
2023-05-05T06:10:26.477Z,2460.00
2023-05-05T06:11:13.401Z,2461.00
2023-05-05T06:12:12.356Z,2463.00
2023-05-05T06:13:12.471Z,2469.00
2023-05-05T06:14:12.339Z,2479.00
2023-05-05T06:15:12.443Z,2495.00
2023-05-05T06:16:12.363Z,2511.00
2023-05-05T06:17:12.323Z,2528.00
2023-05-05T06:18:12.339Z,2540.00
2023-05-05T06:19:12.645Z,2553.00
2023-05-05T06:20:12.307Z,2536.00
2023-05-05T06:21:12.380Z,2545.00
2023-05-05T06:22:12.311Z,2559.00
2023-05-05T06:23:12.286Z,2556.00
2023-05-05T06:24:12.657Z,2558.00
2023-05-05T06:25:12.286Z,2579.00
2023-05-05T06:26:12.276Z,2569.00
2023-05-05T06:27:12.260Z,2571.00
2023-05-05T06:28:12.274Z,2568.00
2023-05-05T06:29:12.500Z,2581.00
2023-05-05T06:30:12.252Z,2571.00
2023-05-05T06:31:12.295Z,2581.00
2023-05-05T06:32:12.648Z,2581.00
2023-05-05T06:33:12.226Z,2556.00
2023-05-05T06:34:12.635Z,2541.00
2023-05-05T06:35:12.217Z,2528.00
2023-05-05T06:36:12.198Z,2492.00
2023-05-05T06:37:12.641Z,2509.00
2023-05-05T06:38:12.192Z,2550.00
2023-05-05T06:39:13.081Z,2581.00
2023-05-05T06:40:12.235Z,2591.00
2023-05-05T06:41:12.261Z,2540.00
2023-05-05T06:42:12.304Z,2575.00
2023-05-05T06:43:12.380Z,2603.00
2023-05-05T06:44:12.666Z,2608.00
2023-05-05T06:45:12.499Z,2627.00
2023-05-05T06:46:12.591Z,2635.00
2023-05-05T06:47:12.640Z,2647.00
2023-05-05T06:48:12.671Z,2624.00
2023-05-05T06:49:12.729Z,2619.00
2023-05-05T06:50:12.815Z,2629.00
2023-05-05T06:51:12.879Z,2638.00
2023-05-05T06:52:12.929Z,2639.00
2023-05-05T06:53:13.052Z,2629.00
2023-05-05T06:54:13.166Z,2623.00
2023-05-05T06:55:13.108Z,2615.00
2023-05-05T06:56:13.181Z,2599.00
2023-05-05T06:57:13.248Z,2599.00
2023-05-05T06:58:13.276Z,2586.00
2023-05-05T06:59:13.347Z,2608.00
2023-05-05T07:00:13.413Z,2588.00
2023-05-05T07:01:13.484Z,2536.00
2023-05-05T07:02:13.514Z,2565.00
2023-05-05T07:03:13.699Z,2562.00
2023-05-05T07:04:13.667Z,2577.00
2023-05-05T07:05:13.690Z,2557.00
2023-05-05T07:06:13.742Z,2548.00
2023-05-05T07:07:13.847Z,2543.00
2023-05-05T07:08:13.840Z,2497.00
2023-05-05T07:09:16.423Z,2454.00
2023-05-05T07:10:13.891Z,2448.00
2023-05-05T07:11:14.637Z,2452.00
2023-05-05T07:12:13.877Z,2461.00
2023-05-05T07:13:13.891Z,2460.00
2023-05-05T07:14:13.871Z,2467.00
2023-05-05T07:15:26.847Z,2466.00
2023-05-05T07:16:14.882Z,2467.00
2023-05-05T07:17:13.848Z,2448.00
2023-05-05T07:18:13.845Z,2423.00
2023-05-05T07:19:13.835Z,2428.00
2023-05-05T07:20:13.949Z,2434.00
2023-05-05T07:21:13.850Z,2441.00
2023-05-05T07:22:13.822Z,2444.00
2023-05-05T07:23:13.821Z,2437.00
2023-05-05T07:24:13.797Z,2429.00
2023-05-05T07:25:13.890Z,2427.00
2023-05-05T07:26:13.885Z,2393.00
2023-05-05T07:27:13.938Z,2403.00
2023-05-05T07:28:13.967Z,2363.00
2023-05-05T07:29:14.187Z,2314.00
2023-05-05T07:30:17.346Z,2242.00
2023-05-05T07:31:14.057Z,2226.00
2023-05-05T07:32:14.203Z,2236.00
2023-05-05T07:33:14.056Z,2249.00
2023-05-05T07:34:14.044Z,2255.00
2023-05-05T07:35:14.039Z,2223.00
2023-05-05T07:36:14.018Z,2135.00
2023-05-05T07:37:14.088Z,2119.00
2023-05-05T07:38:14.027Z,2148.00
2023-05-05T07:39:14.016Z,2179.00
2023-05-05T07:40:14.000Z,2213.00
2023-05-05T07:41:14.062Z,2231.00
2023-05-05T07:42:13.974Z,2258.00
2023-05-05T07:43:13.996Z,2282.00
2023-05-05T07:44:13.964Z,2275.00
2023-05-05T07:45:13.964Z,2257.00
2023-05-05T07:46:14.038Z,2252.00
2023-05-05T07:47:13.941Z,2246.00
2023-05-05T07:48:13.935Z,2266.00
2023-05-05T07:49:14.176Z,2259.00
2023-05-05T07:50:13.958Z,2283.00
2023-05-05T07:51:13.987Z,2286.00
2023-05-05T07:52:14.030Z,2290.00
2023-05-05T07:53:15.106Z,2305.00
2023-05-05T07:54:14.189Z,2306.00
2023-05-05T07:55:14.122Z,2313.00
2023-05-05T07:56:14.172Z,2324.00
2023-05-05T07:57:14.227Z,2319.00
2023-05-05T07:58:14.207Z,2314.00
2023-05-05T07:59:14.692Z,2308.00
2023-05-05T08:00:14.261Z,2295.00
2023-05-05T08:01:14.327Z,2303.00
2023-05-05T08:02:14.379Z,2306.00
2023-05-05T08:03:14.426Z,2287.00
2023-05-05T08:04:14.449Z,2289.00
2023-05-05T08:05:14.414Z,2301.00
2023-05-05T08:06:14.446Z,2281.00
2023-05-05T08:07:14.476Z,2303.00
2023-05-05T08:08:14.517Z,2303.00
2023-05-05T08:09:14.530Z,2317.00
2023-05-05T08:10:14.576Z,2312.00
2023-05-05T08:11:14.584Z,2306.00
2023-05-05T08:12:14.603Z,2312.00
2023-05-05T08:13:14.754Z,2305.00
2023-05-05T08:14:14.650Z,2288.00
2023-05-05T08:15:14.688Z,2286.00
2023-05-05T08:16:14.746Z,2278.00
2023-05-05T08:17:14.747Z,2288.00
2023-05-05T08:18:14.767Z,2280.00
2023-05-05T08:19:27.597Z,2294.00
2023-05-05T08:20:15.791Z,2295.00
2023-05-05T08:21:14.791Z,2230.00
2023-05-05T08:22:14.776Z,2254.00
2023-05-05T08:23:14.813Z,1709.00
2023-05-05T08:24:15.692Z,843.00
2023-05-05T08:25:14.900Z,604.00
2023-05-05T08:26:14.940Z,472.00
2023-05-05T08:27:14.953Z,400.00
2023-05-05T08:28:14.973Z,400.00
2023-05-05T08:29:15.071Z,400.00
2023-05-05T08:30:15.003Z,400.00
2023-05-05T08:31:15.069Z,400.00
2023-05-05T08:32:15.082Z,400.00
2023-05-05T08:33:15.154Z,428.00
2023-05-05T08:34:15.158Z,401.00
2023-05-05T08:35:15.226Z,471.00
2023-05-05T08:36:15.256Z,480.00
2023-05-05T08:37:15.301Z,494.00
2023-05-05T08:38:15.421Z,517.00
2023-05-05T08:39:15.423Z,584.00
2023-05-05T08:40:15.505Z,718.00
2023-05-05T08:41:15.536Z,856.00
2023-05-05T08:42:25.401Z,884.00
2023-05-05T08:43:16.572Z,896.00
2023-05-05T08:44:15.581Z,967.00
2023-05-05T08:45:15.627Z,1093.00
2023-05-05T08:46:15.588Z,1246.00
2023-05-05T08:47:15.717Z,1729.00
2023-05-05T08:48:15.537Z,1834.00
2023-05-05T08:49:15.526Z,1875.00
2023-05-05T08:50:15.565Z,2135.00
2023-05-05T08:51:15.552Z,2243.00
2023-05-05T08:52:15.564Z,2256.00
2023-05-05T08:53:15.524Z,2139.00
2023-05-05T08:54:15.689Z,2236.00
2023-05-05T08:55:15.508Z,2367.00
2023-05-05T08:56:15.528Z,1952.00
2023-05-05T08:57:15.471Z,1533.00
2023-05-05T08:58:15.466Z,1615.00
2023-05-05T08:59:15.503Z,1548.00
2023-05-05T09:00:15.472Z,1750.00
2023-05-05T09:01:15.699Z,1866.00
2023-05-05T09:02:15.460Z,2131.00
2023-05-05T09:03:15.662Z,1990.00
2023-05-05T09:04:15.445Z,2142.00
2023-05-05T09:05:15.424Z,2208.00
2023-05-05T09:06:15.421Z,2313.00
2023-05-05T09:07:15.413Z,2398.00
2023-05-05T09:08:15.451Z,2398.00
2023-05-05T09:09:15.464Z,2529.00
2023-05-05T09:10:15.521Z,2570.00
2023-05-05T09:11:15.564Z,2533.00
2023-05-05T09:12:15.621Z,2382.00
2023-05-05T09:13:15.681Z,2508.00
2023-05-05T09:14:15.677Z,2542.00
2023-05-05T09:15:15.723Z,2500.00
2023-05-05T09:16:15.773Z,2644.00
2023-05-05T09:17:15.815Z,2676.00
2023-05-05T09:18:15.863Z,2662.00
2023-05-05T09:19:15.888Z,2675.00
2023-05-05T09:20:15.910Z,2737.00
2023-05-05T09:21:15.940Z,2719.00
2023-05-05T09:22:15.986Z,2766.00
2023-05-05T09:23:15.984Z,2797.00
2023-05-05T09:24:16.039Z,2821.00
2023-05-05T09:25:16.050Z,2849.00
2023-05-05T09:26:16.069Z,2681.00
2023-05-05T09:27:16.085Z,1858.00
2023-05-05T09:28:16.173Z,1341.00
2023-05-05T09:29:16.192Z,890.00
2023-05-05T09:30:16.241Z,752.00
2023-05-05T09:31:16.449Z,579.00
2023-05-05T09:32:16.336Z,631.00
2023-05-05T09:33:16.706Z,645.00
2023-05-05T09:34:16.447Z,705.00
2023-05-05T09:35:16.555Z,759.00
2023-05-05T09:36:16.589Z,932.00
2023-05-05T09:37:16.637Z,758.00
2023-05-05T09:38:16.710Z,911.00
2023-05-05T09:39:16.750Z,962.00
2023-05-05T09:40:16.798Z,1072.00
2023-05-05T09:41:16.861Z,1253.00
2023-05-05T09:42:16.924Z,1208.00
2023-05-05T09:43:16.956Z,1171.00
2023-05-05T09:44:17.045Z,1185.00
2023-05-05T09:45:17.074Z,939.00
2023-05-05T09:46:17.132Z,1180.00
2023-05-05T09:47:29.095Z,1093.00
2023-05-05T09:48:18.319Z,1097.00
2023-05-05T09:49:17.219Z,1136.00
2023-05-05T09:50:17.165Z,1237.00
2023-05-05T09:51:17.152Z,1270.00
2023-05-05T09:52:17.155Z,1113.00
2023-05-05T09:53:17.142Z,1058.00
2023-05-05T09:54:17.117Z,1196.00
2023-05-05T09:55:17.151Z,1060.00
2023-05-05T09:56:17.203Z,838.00
2023-05-05T09:57:17.272Z,689.00
2023-05-05T09:58:17.418Z,598.00
2023-05-05T09:59:17.384Z,589.00
2023-05-05T10:00:17.710Z,656.00
2023-05-05T10:01:17.472Z,748.00
2023-05-05T10:02:17.502Z,747.00
2023-05-05T10:03:17.539Z,624.00
2023-05-05T10:04:17.575Z,446.00
2023-05-05T10:05:17.958Z,537.00
2023-05-05T10:06:17.599Z,554.00
2023-05-05T10:07:17.611Z,495.00
2023-05-05T10:08:17.591Z,476.00
2023-05-05T10:09:17.602Z,420.00
2023-05-05T10:10:17.648Z,542.00
2023-05-05T10:11:17.596Z,533.00
2023-05-05T10:12:17.607Z,515.00
2023-05-05T10:13:17.680Z,664.00
2023-05-05T10:14:17.609Z,660.00
2023-05-05T10:15:17.625Z,579.00
2023-05-05T10:16:17.632Z,430.00
2023-05-05T10:17:17.594Z,400.00
2023-05-05T10:18:17.621Z,457.00
2023-05-05T10:19:17.601Z,470.00
2023-05-05T10:20:17.615Z,507.00
2023-05-05T10:21:17.659Z,512.00
2023-05-05T10:22:17.593Z,487.00
2023-05-05T10:23:17.598Z,598.00
2023-05-05T10:24:17.612Z,564.00
2023-05-05T10:25:17.578Z,549.00
2023-05-05T10:26:17.575Z,659.00
2023-05-05T10:27:17.570Z,704.00
2023-05-05T10:28:17.602Z,924.00
2023-05-05T10:29:17.620Z,804.00
2023-05-05T10:30:17.636Z,1146.00
2023-05-05T10:31:25.754Z,1496.00
2023-05-05T10:32:49.746Z,1469.00
2023-05-05T10:33:31.551Z,1170.00
2023-05-05T10:34:18.672Z,1497.00
2023-05-05T10:35:17.628Z,1476.00
2023-05-05T10:36:17.632Z,1311.00
2023-05-05T10:37:17.686Z,1114.00
2023-05-05T10:38:17.609Z,819.00
2023-05-05T10:39:17.600Z,548.00
2023-05-05T10:40:17.595Z,516.00
2023-05-05T10:41:17.589Z,508.00
2023-05-05T10:42:17.580Z,540.00
2023-05-05T10:43:17.612Z,584.00
2023-05-05T10:44:17.584Z,604.00
2023-05-05T10:45:17.622Z,515.00
2023-05-05T10:46:17.585Z,400.00
2023-05-05T10:47:17.538Z,400.00
2023-05-05T10:48:17.592Z,400.00
2023-05-05T10:49:17.560Z,540.00
2023-05-05T10:50:17.543Z,618.00
2023-05-05T10:51:27.409Z,557.00
2023-05-05T10:52:18.513Z,558.00
2023-05-05T10:53:17.569Z,566.00
2023-05-05T10:54:17.525Z,581.00
2023-05-05T10:55:17.526Z,624.00
2023-05-05T10:56:17.483Z,812.00
2023-05-05T10:57:17.490Z,938.00
2023-05-05T10:58:17.488Z,1020.00
2023-05-05T10:59:17.492Z,960.00
2023-05-05T11:00:17.477Z,908.00
2023-05-05T11:01:17.491Z,824.00
2023-05-05T11:02:17.444Z,894.00
2023-05-05T11:03:17.491Z,998.00
2023-05-05T11:04:17.441Z,1196.00
2023-05-05T11:05:17.465Z,1701.00
2023-05-05T11:06:17.440Z,1770.00
2023-05-05T11:07:17.428Z,1851.00
2023-05-05T11:08:17.400Z,1911.00
2023-05-05T11:09:17.537Z,1901.00
2023-05-05T11:10:17.761Z,1795.00
2023-05-05T11:11:17.411Z,1944.00
2023-05-05T11:12:17.460Z,2225.00
2023-05-05T11:13:17.563Z,2372.00
2023-05-05T11:14:17.595Z,2514.00
2023-05-05T11:15:17.754Z,2325.00
2023-05-05T11:16:17.725Z,2021.00
2023-05-05T11:17:17.781Z,1977.00
2023-05-05T11:18:17.949Z,2006.00
2023-05-05T11:19:17.906Z,2202.00
2023-05-05T11:20:18.247Z,2262.00
2023-05-05T11:21:18.074Z,2351.00
2023-05-05T11:22:18.086Z,2415.00
2023-05-05T11:23:18.146Z,2511.00
2023-05-05T11:24:18.188Z,2508.00
2023-05-05T11:25:18.312Z,2532.00
2023-05-05T11:26:18.318Z,2594.00
2023-05-05T11:27:18.371Z,2711.00
2023-05-05T11:28:18.427Z,2764.00
2023-05-05T11:29:18.465Z,2791.00
2023-05-05T11:30:18.524Z,2824.00
2023-05-05T11:31:18.680Z,2868.00
2023-05-05T11:32:18.636Z,2929.00
2023-05-05T11:33:18.695Z,2941.00
2023-05-05T11:34:18.726Z,2972.00
2023-05-05T11:35:18.796Z,3058.00
2023-05-05T11:36:18.845Z,3097.00
2023-05-05T11:37:18.877Z,3151.00
2023-05-05T11:38:18.962Z,3171.00
2023-05-05T11:39:18.991Z,3258.00
2023-05-05T11:40:19.064Z,3258.00
2023-05-05T11:41:19.164Z,3342.00
2023-05-05T11:42:19.140Z,3349.00
2023-05-05T11:43:19.197Z,3344.00
2023-05-05T11:44:19.247Z,3439.00
2023-05-05T11:45:19.303Z,3451.00
2023-05-05T11:46:19.366Z,3435.00
2023-05-05T11:47:19.408Z,3426.00
2023-05-05T11:48:19.448Z,3441.00
2023-05-05T11:49:19.525Z,3475.00
2023-05-05T11:50:19.589Z,3477.00
2023-05-05T11:51:19.615Z,3418.00
2023-05-05T11:52:19.683Z,3457.00
2023-05-05T11:53:19.746Z,3497.00
2023-05-05T11:54:19.792Z,3554.00
2023-05-05T11:55:19.854Z,3496.00
2023-05-05T11:56:19.908Z,3494.00
2023-05-05T11:57:20.008Z,3529.00
2023-05-05T11:58:20.010Z,3521.00
2023-05-05T11:59:20.061Z,3562.00
2023-05-05T12:00:20.129Z,3506.00
2023-05-05T12:01:20.202Z,3513.00
2023-05-05T12:02:20.273Z,3523.00
2023-05-05T12:03:20.379Z,3479.00
2023-05-05T12:04:20.361Z,3517.00
2023-05-05T12:05:20.369Z,3496.00
2023-05-05T12:06:20.439Z,3495.00
2023-05-05T12:07:20.497Z,3554.00
2023-05-05T12:08:20.549Z,3530.00
2023-05-05T12:09:20.609Z,3535.00